• Join FlightAware (Why Join?)
  • Login
  • US Flag 
07:12AM EST


 

Airport Tracker/Info


-or-


 

Live Flight TrackerFlight Track Log ✈ ASH3751 ✈ 16-Jun-2013 ✈ KSAT - KIAD

Flight Track Log - Related Links

Times and Time Zones

All times are in EDT time to prevent confusion due to time zone crossing. See the ASH3751 flight status page for this flight to view local times or setup timezone preferences in your user account.

Time Position Orientation Groundspeed Altitude Reporting Facility
EDT Latitude Longitude Course Direction KTS MPH feet Rate Location/Type
12:50PM 29.5197 -98.4547 90° East 158 182 1,700  Level Houston Center
12:50PM 29.5053 -98.4347 130° Southeast 166 191 2,500 1,800 Climbing Houston Center
12:51PM 29.4997 -98.3731 96° East 244 281 4,300 1,860 Climbing Houston Center
12:51PM 29.5211 -98.3564 34° Northeast 242 278 5,200 2,160 Climbing Houston Center
12:52PM 29.5603 -98.2822 59° Northeast 270 311 7,500 2,160 Climbing Houston Center
12:53PM 29.6500 -97.9007 90° East  Level FlightAware Approximate
12:54PM 29.6500 -97.7497 90° East  Level FlightAware Approximate
12:54PM 29.5775 -98.1947 77° East 281 323 9,700  Level Houston Center
12:55PM 29.6501 -97.5987 90° East  Level FlightAware Approximate
12:55PM 29.5983 -98.0925 77° East 305 351 11,300  Level Houston Center
12:56PM 29.6206 -97.9844 77° East 347 399 12,400 1,080 Climbing Houston Center
12:57PM 29.6469 -97.8581 76° East 379 436 13,600 1,020 Climbing Houston Center
12:58PM 29.6553 -97.7458 85° East 398 458 14,600 960 Climbing Houston Center
12:59PM 29.6553 -97.6144 90° East 408 470 15,700 1,200 Climbing Houston Center
01:00PM 29.6567 -97.4550 89° East 415 478 17,100 1,200 Climbing Houston Center
01:01PM 29.6581 -97.3169 89° East 428 493 18,200 1,020 Climbing Houston Center
01:02PM 29.6592 -97.1778 89° East 431 496 19,300 1,140 Climbing Houston Center
01:03PM 29.6594 -97.0381 90° East 434 499 20,600 1,140 Climbing Houston Center
01:04PM 29.6406 -96.9003 99° East 436 502 21,700 960 Climbing Houston Center
01:05PM 29.6164 -96.7606 101° East 439 505 22,600 900 Climbing Houston Center
01:06PM 29.5958 -96.6197 99° East 443 510 23,600 960 Climbing Houston Center
01:07PM 29.5811 -96.4775 97° East 445 512 24,600 960 Climbing Houston Center
01:08PM 29.5694 -96.3042 94° East 453 521 25,600 900 Climbing Houston Center
01:09PM 29.6442 -96.1931 52° Northeast 451 519 26,500 840 Climbing Houston Center
01:10PM 29.7347 -96.0981 42° Northeast 444 511 27,400 840 Climbing Houston Center
01:11PM 29.8222 -96.0061 42° Northeast 447 514 28,300 780 Climbing Houston Center
01:12PM 29.9131 -95.9078 43° Northeast 447 514 29,100 780 Climbing Houston Center
01:13PM 30.0244 -95.7894 43° Northeast 450 518 30,000 780 Climbing Houston Center
01:14PM 30.1172 -95.6914 42° Northeast 451 519 30,800 720 Climbing Houston Center
01:15PM 30.2103 -95.5925 43° Northeast 451 519 31,500 720 Climbing Houston Center
01:16PM 30.3025 -95.4933 43° Northeast 453 521 32,300 600 Climbing Houston Center
01:17PM 30.3969 -95.3900 43° Northeast 463 533 32,800 480 Climbing Houston Center
01:18PM 30.4931 -95.2839 44° Northeast 462 532 33,400 660 Climbing Houston Center
01:19PM 30.6042 -95.1603 44° Northeast 461 531 34,200 600 Climbing Houston Center
01:20PM 30.6986 -95.0564 43° Northeast 464 534 34,700 360 Climbing Houston Center
01:21PM 30.7931 -94.9531 43° Northeast 467 537 35,000 120 Climbing Houston Center
01:22PM 30.8889 -94.8467 44° Northeast 473 544 35,000  Level Houston Center
01:24PM 30.9864 -94.7392 43° Northeast 481 554 35,000  Level Houston Center
01:25PM 31.0822 -94.6306 44° Northeast 486 559 35,000  Level Houston Center
01:26PM 31.1992 -94.5039 43° Northeast 486 559 35,000  Level Houston Center
01:27PM 31.2972 -94.3956 43° Northeast 488 562 35,000  Level Houston Center
01:28PM 31.3942 -94.2881 43° Northeast 485 558 35,000 120 Level Houston Center
01:29PM 31.4914 -94.1789 44° Northeast 485 558 35,300 540 Climbing Houston Center
01:30PM 31.6075 -94.0506 43° Northeast 481 554 36,200 720 Climbing Houston Center
01:31PM 31.7019 -93.9436 44° Northeast 475 547 36,900 360 Climbing Houston Center
01:32PM 31.7978 -93.8350 44° Northeast 472 543 37,000  Climbing Houston Center
01:33PM 31.8944 -93.7261 44° Northeast 478 550 37,000  Level Houston Center
01:34PM 31.9886 -93.6183 44° Northeast 474 545 37,000 60 Level Houston Center
01:35PM 32.0839 -93.5097 44° Northeast 475 547 37,200 480 Climbing Houston Center
01:36PM 32.1769 -93.4025 44° Northeast 466 536 38,000 240 Climbing Houston Center
01:38PM 32.3836 -93.1600 45° Northeast 456 525 38,000  Level Fort Worth Center
01:39PM 32.4739 -93.0525 45° Northeast 456 525 38,000  Level Fort Worth Center
01:40PM 32.5664 -92.9469 44° Northeast 456 525 38,000  Level Fort Worth Center
01:41PM 32.6586 -92.8411 44° Northeast 461 531 38,000  Level Fort Worth Center
01:42PM 32.7464 -92.7381 45° Northeast 461 531 38,000  Level Fort Worth Center
01:43PM 32.8386 -92.6344 43° Northeast 461 531 38,000  Level Fort Worth Center
01:44PM 32.9283 -92.5256 46° Northeast 456 525 38,000  Level Fort Worth Center
01:45PM 33.0222 -92.4164 44° Northeast 462 532 38,000  Level Fort Worth Center
01:46PM 33.1311 -92.2847 45° Northeast 464 534 38,000  Level Memphis Center
01:47PM 33.2286 -92.1728 44° Northeast 470 541 38,000  Level Memphis Center
01:48PM 33.3219 -92.0653 44° Northeast 470 541 38,000  Level Memphis Center
01:49PM 33.4175 -91.9550 44° Northeast 464 534 38,000  Level Memphis Center
01:50PM 33.5106 -91.8422 45° Northeast 464 534 38,000 180 Level Memphis Center
01:51PM 33.6039 -91.7264 46° Northeast 469 540 38,400 420 Climbing Memphis Center
01:52PM 33.6969 -91.6131 45° Northeast 463 533 38,900 300 Climbing Memphis Center
01:53PM 33.7878 -91.5044 45° Northeast 463 533 39,000  Climbing Memphis Center
01:54PM 33.8825 -91.3881 46° Northeast 468 539 39,000  Level Memphis Center
01:55PM 33.9753 -91.2739 46° Northeast 475 547 39,000  Level Memphis Center
01:56PM 34.0722 -91.1597 44° Northeast 480 552 39,000  Level Memphis Center
01:57PM 34.1667 -91.0400 46° Northeast 480 552 39,000  Level Memphis Center
01:58PM 34.2506 -90.9375 45° Northeast 480 552 39,000  Level Memphis Center
01:59PM 34.3450 -90.8200 46° Northeast 486 559 39,000  Level Memphis Center
02:00PM 34.4414 -90.7022 45° Northeast 481 554 39,000  Level Memphis Center
02:01PM 34.5378 -90.5842 45° Northeast 481 554 39,000  Level Memphis Center
02:02PM 34.6317 -90.4708 45° Northeast 474 545 39,000  Level Memphis Center
02:03PM 34.7342 -90.3394 46° Northeast 474 545 39,000  Level Memphis Center
02:04PM 34.8319 -90.2206 45° Northeast 480 552 39,000  Level Memphis Center
02:05PM 34.9258 -90.1089 44° Northeast 480 552 39,000  Level Memphis Center
02:06PM 35.0172 -89.9819 49° Northeast 486 559 39,000  Level Memphis Center
02:07PM 35.0772 -89.8267 65° Northeast 496 571 39,000  Level Memphis Center
02:08PM 35.1286 -89.6842 66° East 496 571 39,000  Level Memphis Center
02:09PM 35.1797 -89.5289 68° East 496 571 39,000  Level Memphis Center
02:10PM 35.2328 -89.3758 67° East 496 571 39,000  Level Memphis Center
02:11PM 35.2878 -89.2225 66° East 496 571 39,000  Level Memphis Center
02:12PM 35.3467 -89.0511 67° East 496 571 39,000  Level Memphis Center
02:13PM 35.3992 -88.8975 67° East 496 571 39,000  Level Memphis Center
02:14PM 35.4494 -88.7436 68° East 496 571 39,000  Level Memphis Center
02:15PM 35.5142 -88.5969 62° Northeast 496 571 39,000  Level Memphis Center
02:16PM 35.5828 -88.4475 61° Northeast 494 568 39,000  Level Memphis Center
02:17PM 35.6514 -88.3028 60° Northeast 494 568 39,000  Level Memphis Center
02:18PM 35.7197 -88.1528 61° Northeast 494 568 39,000  Level Memphis Center
02:19PM 35.7842 -88.0181 59° Northeast 475 547 39,000  Level Memphis Center
02:20PM 35.8500 -87.8703 61° Northeast 482 555 39,000  Level Memphis Center
02:21PM 35.9158 -87.7222 61° Northeast 482 555 39,000  Level Memphis Center
02:22PM 35.9814 -87.5764 61° Northeast 489 563 39,000  Level Memphis Center
02:23PM 36.0467 -87.4253 62° Northeast 489 563 39,000  Level Memphis Center
02:24PM 36.1119 -87.2817 61° Northeast 484 557 39,000  Level Memphis Center
02:25PM 36.1750 -87.1328 62° Northeast 490 564 39,000  Level Memphis Center
02:26PM 36.2397 -86.9836 62° Northeast 488 562 39,000  Level Memphis Center
02:27PM 36.3044 -86.8339 62° Northeast 495 570 39,000  Level Memphis Center
02:28PM 36.3728 -86.6714 62° Northeast 498 573 39,000  Level Memphis Center
02:29PM 36.4392 -86.5289 60° Northeast 509 586 39,000  Level Memphis Center
02:30PM 36.5033 -86.3761 62° Northeast 493 567 39,000  Level Memphis Center
02:32PM 36.6006 -86.1578 61° Northeast 497 572 39,000  Level Indianapolis Center
02:33PM 36.6658 -86.0033 62° Northeast 499 574 39,000  Level Indianapolis Center
02:34PM 36.7306 -85.8508 62° Northeast 496 571 39,000  Level Indianapolis Center
02:35PM 36.8056 -85.6700 63° Northeast 498 573 39,000  Level Indianapolis Center
02:36PM 36.8708 -85.5131 62° Northeast 503 579 39,000  Level Indianapolis Center
02:37PM 36.9314 -85.3736 61° Northeast 498 573 39,000  Level Indianapolis Center
02:38PM 36.9953 -85.2169 63° Northeast 504 580 39,000  Level Indianapolis Center
02:39PM 37.0719 -85.0336 62° Northeast 501 577 39,000  Level Indianapolis Center
02:40PM 37.1361 -84.8764 63° Northeast 505 581 39,000  Level Indianapolis Center
02:41PM 37.2000 -84.7189 63° Northeast 506 582 39,000  Level Indianapolis Center
02:42PM 37.2650 -84.5619 62° Northeast 505 581 39,000  Level Indianapolis Center
02:43PM 37.3275 -84.4033 64° Northeast 507 583 39,000  Level Indianapolis Center
02:44PM 37.3919 -84.2458 63° Northeast 506 582 39,000  Level Indianapolis Center
02:45PM 37.4689 -84.0578 63° Northeast 512 589 39,000  Level Indianapolis Center
02:46PM 37.5314 -83.8989 64° Northeast 507 583 39,000  Level Indianapolis Center
02:47PM 37.5961 -83.7381 63° Northeast 508 585 39,000  Level Indianapolis Center
02:48PM 37.6589 -83.5786 64° Northeast 508 585 39,000  Level Indianapolis Center
02:49PM 37.7211 -83.4189 64° Northeast 505 581 39,000  Level Indianapolis Center
02:50PM 37.7842 -83.2567 64° Northeast 509 586 39,000  Level Indianapolis Center
02:51PM 37.8472 -83.0933 64° Northeast 513 590 39,000  Level Indianapolis Center
02:52PM 37.9194 -82.9064 64° Northeast 506 582 39,000  Level Indianapolis Center
02:54PM 37.9825 -82.7458 63° Northeast 508 585 39,000  Level Indianapolis Center
02:55PM 38.0456 -82.5803 64° Northeast 515 593 39,000  Level Indianapolis Center
02:56PM 38.1108 -82.4075 64° Northeast 513 590 39,000  Level Indianapolis Center
02:57PM 38.1714 -82.2428 65° Northeast 515 593 39,000 -60 Level Indianapolis Center
02:58PM 38.2344 -82.0819 63° Northeast 510 587 38,900 -300 Descending Indianapolis Center
02:59PM 38.2958 -81.9161 65° Northeast 517 595 38,400 -540 Descending Indianapolis Center
03:00PM 38.3403 -81.7425 72° East 524 603 37,900 -480 Descending Indianapolis Center
03:01PM 38.3428 -81.5594 89° East 528 608 37,500 -780 Descending Indianapolis Center
03:02PM 38.3347 -81.3386 93° East 528 608 36,300 -1,140 Descending Indianapolis Center
03:03PM 38.3286 -81.1547 92° East 525 604 35,200 -1,080 Descending Indianapolis Center
03:04PM 38.3219 -80.9678 93° East 532 612 34,100 -1,080 Descending Indianapolis Center
03:05PM 38.3144 -80.7792 93° East 536 617 33,000 -540 Descending Indianapolis Center
03:06PM 38.3083 -80.5908 92° East 536 617 33,000 -120 Level Indianapolis Center
03:06PM 38.3181 -80.4719 84° East 533 613 32,900  Descending Washington Center
03:07PM 38.3542 -80.2942 75° East 518 596 33,000 -1,500 Climbing Washington Center
03:08PM 38.3878 -80.1269 76° East 532 612 30,000 -2,400 Descending Washington Center
03:09PM 38.4258 -79.9461 75° East 532 612 28,300 -1,740 Descending Washington Center
03:10PM 38.4592 -79.7678 77° East 525 604 26,600 -1,680 Descending Washington Center
03:11PM 38.4944 -79.5894 76° East 525 604 25,000 -1,320 Descending Washington Center
03:12PM 38.5342 -79.3978 75° East 514 592 24,000 -540 Descending Washington Center
03:13PM 38.5622 -79.2294 78° East 502 578 24,000 -60 Level Washington Center
03:14PM 38.5897 -79.0767 77° East 497 572 23,900 -1,440 Descending Washington Center
03:15PM 38.6236 -78.9108 75° East 483 556 21,100 -3,180 Descending Washington Center
03:16PM 38.6572 -78.7528 75° East 471 542 17,600 -3,360 Descending Washington Center
03:17PM 38.6883 -78.5944 76° East 466 536 14,600 -3,240 Descending Washington Center
03:18PM 38.7192 -78.4442 75° East 453 521 11,100 -1,800 Descending Washington Center
03:19PM 38.7656 -78.3314 62° Northeast 387 445 11,000 -780 Descending Washington Center
03:20PM 38.8236 -78.2483 48° Northeast 343 395 9,600 -1,500 Descending Washington Center
03:21PM 38.8672 -78.1564 59° Northeast 321 369 8,000 -1,380 Descending Washington Center
03:22PM 38.8925 -78.0508 73° East 307 353 7,000 -1,020 Descending Washington Center
03:23PM 38.9194 -77.9450 72° East 307 353 6,000 -540 Descending Washington Center
03:24PM 38.9467 -77.8389 72° East 293 337 6,000  Level Washington Center
03:25PM 38.9650 -77.7514 75° East 281 323 6,000 -180 Level Washington Center
03:26PM 38.9564 -77.6444 96° East 276 318 5,700 -660 Descending Washington Center
03:27PM 39.0000 -77.5833 47° Northeast 262 302 4,800 -1,140 Descending Potomac TRACON
03:28PM 39.0667 -77.5667 11° North 221 254 3,500 -1,380 Descending Potomac TRACON
03:29PM 39.0500 -77.5000 108° East 201 231 1,900 -1,200 Descending Potomac TRACON
03:30PM 39.0167 -77.4833 159° South 155 178 1,200 -660 Descending Potomac TRACON
03:31PM 38.9833 -77.4667 159° South 134 154 700 -540 Descending Potomac TRACON
03:33PM 38.9474 -77.4599 159° South  Level Estimated
03:40PM 38.9474 -77.4599 159° South  Level Estimated
03:41PM 38.9474 -77.4599 159° South  Level Estimated
03:42PM 38.9474 -77.4599 159° South  Level Estimated
03:43PM 38.9474 -77.4599 159° South  Level Estimated
03:44PM 38.9474 -77.4599 159° South  Level Estimated